PAGINA EN CONSTRUCCIÓN

DISCULPEN POSIBLES FALLOS



Daganzo more information Daganzo


Meteosat more information blitzortung!


Radar lluvias  rain snow radar


Visita nuestra red de sitios de meteo:

Documentation for the template used

MeteoibericaRed estaciones Meteorologicas



Sin Advertencias climatologicas .En este momento tenemos Nivel Verde.    No hay Alarmas

Pagina Historial Weather Underground texto

Diario Resumen Junio 20, 2018 Unidades:  Métrico    impérial   Tanto
« Anterior Dia
Siguiente Dia »
Diario Semana Mensual Anual Personalizada
  Actual: Alto: Baja: Media:
Temperatura: -0.2 °C -17.8 °C -8.1 °C -3.6 °C
Punto de rocío: -7.4 °C -17.8 °C -9.4 °C -8.2 °C
Humedad: 46 % Humidity % 43 % 62 %
Velocidad del Viento: 8 km/h 0 km/h 1.8 km/h 14.8 km/h
Ráfagas de viento: 4.2 km/h 0 km/h - -
Viento:North - - North
Pression baro: 34395 hPa 0 hPa 34384.8 hPa -
Précipitaciones: 0 mm      
Historical Graphs
 
 
Datos de tabla para Junio 20, 2018
Tiempo Temperatura Punto de rocío Pression baro Viento Velocidad del Viento Ráfagas de viento Humedad Las precipitaciones Rate ( Hora )
-17.8 °C -17.8 °C 0 hPa Calm     Humidity % 0 mm
00:05 -3.5 °C -8.7 °C 34472.9 hPa North 1.8 km/h   56 % 0 mm
00:09 -3.6 °C -8.8 °C 34469.5 hPa North 5.6 km/h 4.2 km/h 56 % 0 mm
00:14 -3.8 °C -8.8 °C 34472.9 hPa North 6 km/h 4.2 km/h 57 % 0 mm
00:19 -3.9 °C -8.8 °C 34472.9 hPa North 6 km/h 4.2 km/h 58 % 0 mm
00:24 -4 °C -9.1 °C 34476.3 hPa North 6 km/h 4.2 km/h 57 % 0 mm
00:29 -4.1 °C -9.1 °C 34476.3 hPa North 6 km/h 1.8 km/h 57 % 0 mm
00:34 -4.1 °C -9.1 °C 34476.3 hPa North 6 km/h 1.8 km/h 57 % 0 mm
00:39 -4.1 °C -8.8 °C 34483 hPa North 4.2 km/h   59 % 0 mm
00:44 -4.2 °C -9.1 °C 34483 hPa North 5.6 km/h   58 % 0 mm
00:48 -4.2 °C -8.9 °C 34483 hPa North 6 km/h 1.8 km/h 59 % 0 mm
00:54 -4.1 °C -8.9 °C 34479.6 hPa North 8 km/h 4.2 km/h 58 % 0 mm
00:59 -4.1 °C -8.9 °C 34489.8 hPa North 6 km/h   58 % 0 mm
01:04 -4.1 °C -8.9 °C 34493.2 hPa North 4.2 km/h   58 % 0 mm
01:09 -4.6 °C -9 °C 34493.2 hPa North 6 km/h 4.2 km/h 61 % 0 mm
01:14 -4.8 °C -9.3 °C 34493.2 hPa North 9.8 km/h 5.6 km/h 61 % 0 mm
01:19 -5 °C -9.4 °C 34489.8 hPa North 9.8 km/h 5.6 km/h 61 % 0 mm
01:24 -4.9 °C -9.2 °C 34496.6 hPa North 8 km/h 5.6 km/h 62 % 0 mm
01:29 -4.9 °C -9.1 °C 34489.8 hPa North 6 km/h 4.2 km/h 63 % 0 mm
01:34 -5.1 °C -9.1 °C 34496.6 hPa North 6 km/h 4.2 km/h 64 % 0 mm
01:39 -5.1 °C -9.2 °C 34496.6 hPa North 6 km/h 4.2 km/h 63 % 0 mm
01:44 -5.1 °C -9.1 °C 34493.2 hPa North 3.1 km/h   64 % 0 mm
01:49 -5.1 °C -9.1 °C 34496.6 hPa North 9 km/h 1.8 km/h 64 % 0 mm
01:54 -5.3 °C -9.2 °C 34496.6 hPa North 6 km/h 1.8 km/h 65 % 0 mm
01:59 -5.3 °C -9.1 °C 34500 hPa North 4.2 km/h   66 % 0 mm
02:04 -5.2 °C -8.9 °C 34500 hPa North 11.9 km/h 9.8 km/h 66 % 0 mm
02:09 -5 °C -8.8 °C 34500 hPa North 17.9 km/h 8 km/h 65 % 0 mm
02:14 -4.8 °C -8.8 °C 34500 hPa North 20.9 km/h 9.8 km/h 64 % 0 mm
02:19 -4.8 °C -8.8 °C 34500 hPa North 17.9 km/h 8 km/h 64 % 0 mm
02:24 -4.8 °C -8.7 °C 34503.3 hPa North 17.9 km/h 11.6 km/h 65 % 0 mm
02:29 -4.9 °C -8.7 °C 34503.3 hPa North 19.6 km/h 14 km/h 65 % 0 mm
02:34 -4.9 °C -8.7 °C 34506.7 hPa North 26.9 km/h 14 km/h 66 % 0 mm
02:39 -4.9 °C -8.7 °C 34506.7 hPa North 20.9 km/h 9.8 km/h 65 % 0 mm
02:44 -4.9 °C -8.7 °C 34510.1 hPa North 15 km/h 8 km/h 65 % 0 mm
02:49 -5.1 °C -8.7 °C 34510.1 hPa North 9 km/h 4.2 km/h 67 % 0 mm
02:54 -5.2 °C -8.7 °C 34510.1 hPa North 15 km/h 9.8 km/h 67 % 0 mm
02:59 -5.3 °C -8.8 °C 34506.7 hPa North 11.9 km/h 8 km/h 68 % 0 mm
03:04 -5.3 °C -8.8 °C 34503.3 hPa North 9.8 km/h 8 km/h 68 % 0 mm
03:09 -5.5 °C -8.8 °C 34510.1 hPa North 11.9 km/h 5.6 km/h 69 % 0 mm
03:14 -5.6 °C -8.8 °C 34506.7 hPa North 9.8 km/h 5.6 km/h 69 % 0 mm
03:19 -5.6 °C -8.8 °C 34503.3 hPa North 8 km/h 4.2 km/h 69 % 0 mm
03:24 -5.6 °C -8.9 °C 34506.7 hPa North 4.2 km/h   69 % 0 mm
03:29 -5.7 °C -9 °C 34506.7 hPa North 3.1 km/h   69 % 0 mm
03:34 -5.8 °C -8.9 °C 34503.3 hPa North 4.2 km/h 1.8 km/h 70 % 0 mm
03:39 -5.9 °C -8.9 °C 34503.3 hPa North 9.8 km/h 5.6 km/h 71 % 0 mm
03:44 -6.2 °C -9 °C 34510.1 hPa North 9 km/h 5.6 km/h 73 % 0 mm
03:49 -6.4 °C -8.9 °C 34506.7 hPa North 9.8 km/h 5.6 km/h 75 % 0 mm
03:54 -6.4 °C -9 °C 34506.7 hPa North 9.8 km/h 5.6 km/h 75 % 0 mm
03:59 -6.5 °C -9.1 °C 34506.7 hPa North 9 km/h 1.8 km/h 75 % 0 mm
04:04 -6.4 °C -9 °C 34510.1 hPa North 9 km/h 5.6 km/h 75 % 0 mm
04:09 -6.4 °C -8.9 °C 34503.3 hPa North 9 km/h 5.6 km/h 75 % 0 mm
04:14 -6.6 °C -9 °C 34510.1 hPa North 5.6 km/h 4.2 km/h 76 % 0 mm
04:19 -6.6 °C -9.1 °C 34500 hPa North 9.8 km/h 5.6 km/h 75 % 0 mm
04:24 -6.7 °C -9.1 °C 34510.1 hPa North 9 km/h 4.2 km/h 76 % 0 mm
04:29 -6.9 °C -9.1 °C 34500 hPa North 9.8 km/h 5.6 km/h 78 % 0 mm
04:34 -7 °C -9.1 °C 34503.3 hPa North 11.9 km/h 1.8 km/h 79 % 0 mm
04:39 -7.1 °C -9.1 °C 34503.3 hPa North 11.9 km/h 5.6 km/h 80 % 0 mm
04:44 -7.4 °C -9.2 °C 34506.7 hPa North 11.9 km/h 8 km/h 81 % 0 mm
04:49 -7.5 °C -9.1 °C 34503.3 hPa North 15.6 km/h 14 km/h 83 % 0 mm
04:54 -7.7 °C -9.1 °C 34503.3 hPa North 19.6 km/h 14 km/h 85 % 0 mm
04:59 -7.8 °C -9.3 °C 34510.1 hPa North 17.9 km/h 14 km/h 85 % 0 mm
05:04 -7.9 °C -9.2 °C 34506.7 hPa North 17.9 km/h 11.6 km/h 86 % 0 mm
05:09 -7.9 °C -9.2 °C 34503.3 hPa North 17.9 km/h 14 km/h 86 % 0 mm
05:14 -7.8 °C -9.1 °C 34506.7 hPa North 15.6 km/h 8 km/h 86 % 0 mm
05:19 -7.6 °C -9.1 °C 34510.1 hPa North 15.6 km/h 11.6 km/h 85 % 0 mm
05:24 -7.6 °C -9.1 °C 34510.1 hPa North 15 km/h 11.6 km/h 84 % 0 mm
05:29 -7.5 °C -9.1 °C 34510.1 hPa North 15.6 km/h 11.6 km/h 84 % 0 mm
05:34 -7.4 °C -9 °C 34510.1 hPa North 15.6 km/h 9.8 km/h 84 % 0 mm
05:39 -7.5 °C -9.1 °C 34506.7 hPa North 19.6 km/h 14 km/h 84 % 0 mm
05:44 -7.6 °C -9.1 °C 34503.3 hPa North 19.6 km/h 15.6 km/h 85 % 0 mm
05:49 -7.7 °C -9 °C 34506.7 hPa North 15.6 km/h 11.6 km/h 86 % 0 mm
05:54 -7.6 °C -9.1 °C 34500 hPa North 15.6 km/h 11.6 km/h 85 % 0 mm
05:59 -7.7 °C -9.1 °C 34503.3 hPa North 17.9 km/h 14 km/h 85 % 0 mm
06:04 -7.7 °C -9.1 °C 34500 hPa North 15 km/h 8 km/h 86 % 0 mm
06:09 -7.8 °C -9.1 °C 34503.3 hPa North 15 km/h 8 km/h 86 % 0 mm
06:14 -7.8 °C -9.1 °C 34503.3 hPa North 15 km/h 8 km/h 87 % 0 mm
06:19 -7.9 °C -9.1 °C 34506.7 hPa North 15 km/h 5.6 km/h 87 % 0 mm
06:24 -7.9 °C -9.1 °C 34510.1 hPa North 11.9 km/h 8 km/h 88 % 0 mm
06:29 -8.1 °C -9.2 °C 34513.5 hPa North 15 km/h 9.8 km/h 88 % 0 mm
06:34 -8 °C -9.1 °C 34513.5 hPa North 17.9 km/h 8 km/h 88 % 0 mm
06:39 -8 °C -9.1 °C 34513.5 hPa North 15.6 km/h 11.6 km/h 88 % 0 mm
06:44 -7.9 °C -9.1 °C 34516.9 hPa North 17.9 km/h 11.6 km/h 88 % 0 mm
06:49 -7.9 °C -9.1 °C 34510.1 hPa North 15 km/h 8 km/h 88 % 0 mm
06:54 -7.9 °C -8.9 °C 34513.5 hPa North 11.9 km/h 8 km/h 89 % 0 mm
06:59 -7.9 °C -9 °C 34513.5 hPa North 15 km/h 11.6 km/h 88 % 0 mm
07:04 -7.7 °C -8.8 °C 34513.5 hPa North 15 km/h 9.8 km/h 88 % 0 mm
07:09 -7.7 °C -8.9 °C 34513.5 hPa North 15.6 km/h 11.6 km/h 87 % 0 mm
07:14 -7.6 °C -8.9 °C 34516.9 hPa North 20.9 km/h 14 km/h 86 % 0 mm
07:19 -7.6 °C -8.8 °C 34523.7 hPa North 17.9 km/h 14 km/h 87 % 0 mm
07:24 -7.6 °C -8.8 °C 34523.7 hPa North 15 km/h 11.6 km/h 87 % 0 mm
07:29 -7.4 °C -8.8 °C 34523.7 hPa North 17.9 km/h 11.6 km/h 86 % 0 mm
07:34 -7.3 °C -8.7 °C 34516.9 hPa North 20.9 km/h 14 km/h 85 % 0 mm
07:39 -7.1 °C -8.7 °C 34516.9 hPa North 21.6 km/h 15.6 km/h 84 % 0 mm
07:44 -6.9 °C -8.5 °C 34516.9 hPa North 21.6 km/h 11.6 km/h 84 % 0 mm
07:49 -6.9 °C -8.4 °C 34520.3 hPa North 14 km/h 8 km/h 84 % 0 mm
07:54 -6.7 °C -8.3 °C 34520.3 hPa North 17.9 km/h 11.6 km/h 84 % 0 mm
07:59 -6.6 °C -8.2 °C 34516.9 hPa North 20.9 km/h 11.6 km/h 83 % 0 mm
08:04 -6.4 °C -8.2 °C 34513.5 hPa North 20.9 km/h 11.6 km/h 82 % 0 mm
08:09 -6.4 °C -8.2 °C 34520.3 hPa North 17.9 km/h 11.6 km/h 82 % 0 mm
08:14 -6.3 °C -8.2 °C 34520.3 hPa North 23.8 km/h 15.6 km/h 81 % 0 mm
08:19 -6.2 °C -8.1 °C 34516.9 hPa North 17.9 km/h 9.8 km/h 81 % 0 mm
08:24 -6.1 °C -8 °C 34520.3 hPa North 20.9 km/h 8 km/h 81 % 0 mm
08:29 -6.1 °C -7.9 °C 34520.3 hPa North 19.6 km/h 9.8 km/h 81 % 0 mm
08:34 -5.9 °C -7.8 °C 34523.7 hPa North 17.9 km/h 9.8 km/h 81 % 0 mm
08:39 -5.7 °C -7.7 °C 34516.9 hPa North 11.9 km/h 5.6 km/h 80 % 0 mm
08:44 -5.6 °C -7.6 °C 34523.7 hPa North 15.6 km/h 5.6 km/h 80 % 0 mm
08:49 -5.7 °C -7.9 °C 34523.7 hPa North 17.9 km/h 11.6 km/h 78 % 0 mm
08:54 -5.6 °C -7.8 °C 34520.3 hPa North 15.6 km/h 11.6 km/h 78 % 0 mm
08:59 -5.4 °C -7.7 °C 34520.3 hPa North 17.9 km/h 9.8 km/h 78 % 0 mm
09:04 -5.5 °C -7.7 °C 34527 hPa North 20.9 km/h 9.8 km/h 78 % 0 mm
09:09 -5.4 °C -7.8 °C 34520.3 hPa North 21.6 km/h 14 km/h 77 % 0 mm
09:14 -5.2 °C -7.6 °C 34523.7 hPa North 15.6 km/h 8 km/h 77 % 0 mm
09:19 -5 °C -7.4 °C 34523.7 hPa North 15.6 km/h 8 km/h 76 % 0 mm
09:24 -5.1 °C -7.8 °C 34523.7 hPa North 17.9 km/h 11.6 km/h 74 % 0 mm
09:29 -5.1 °C -7.7 °C 34523.7 hPa North 15 km/h 5.6 km/h 75 % 0 mm
09:34 -4.9 °C -7.8 °C 34523.7 hPa North 17.9 km/h 9.8 km/h 73 % 0 mm
09:39 -4.6 °C -7.4 °C 34520.3 hPa North 15 km/h 5.6 km/h 73 % 0 mm
09:44 -4.7 °C -7.6 °C 34523.7 hPa North 15.6 km/h 8 km/h 72 % 0 mm
09:49 -4.6 °C -7.7 °C 34523.7 hPa North 17.9 km/h 8 km/h 71 % 0 mm
09:54 -4.4 °C -7.6 °C 34520.3 hPa North 15 km/h 4.2 km/h 71 % 0 mm
09:59 -4.3 °C -7.7 °C 34516.9 hPa North 19.6 km/h 11.6 km/h 69 % 0 mm
10:04 -4.1 °C -7.4 °C 34516.9 hPa North 11.6 km/h 8 km/h 69 % 0 mm
10:09 -4 °C -7.4 °C 34523.7 hPa North 17.9 km/h 4.2 km/h 69 % 0 mm
10:14 -3.9 °C -7.6 °C 34516.9 hPa North 17.9 km/h 9.8 km/h 67 % 0 mm
10:19 -4 °C -7.9 °C 34520.3 hPa North 17.9 km/h 11.6 km/h 65 % 0 mm
10:24 -4 °C -7.8 °C 34516.9 hPa North 21.6 km/h 14 km/h 66 % 0 mm
10:29 -3.9 °C -7.8 °C 34520.3 hPa North 17.9 km/h 14 km/h 65 % 0 mm
10:34 -3.8 °C -7.7 °C 34520.3 hPa North 21.6 km/h 9.8 km/h 65 % 0 mm
10:39 -3.7 °C -7.9 °C 34516.9 hPa North 20.9 km/h 9.8 km/h 63 % 0 mm
10:44 -3.5 °C -7.7 °C 34520.3 hPa North 6 km/h 1.8 km/h 63 % 0 mm
10:49 -3.3 °C -7.7 °C 34520.3 hPa North 9 km/h 4.2 km/h 62 % 0 mm
10:54 -3.3 °C -8 °C 34516.9 hPa North 17.9 km/h 11.6 km/h 60 % 0 mm
10:59 -3.4 °C -7.8 °C 34520.3 hPa North 19.6 km/h 11.6 km/h 62 % 0 mm
11:04 -3.5 °C -7.8 °C 34516.9 hPa North 23.8 km/h 11.6 km/h 62 % 0 mm
11:09 -3.6 °C -8.1 °C 34516.9 hPa North 20.9 km/h 9.8 km/h 61 % 0 mm
11:14 -3.4 °C -7.8 °C 34513.5 hPa North 11.6 km/h 5.6 km/h 62 % 0 mm
11:19 -3.6 °C -7.9 °C 34516.9 hPa North 20.9 km/h 8 km/h 62 % 0 mm
11:24 -3.6 °C -8.1 °C 34513.5 hPa North 25.4 km/h 17.9 km/h 61 % 0 mm
11:29 -3.4 °C -7.9 °C 34513.5 hPa North 15 km/h 5.6 km/h 61 % 0 mm
11:34 -3.2 °C -7.9 °C 34516.9 hPa North 19.6 km/h 14 km/h 60 % 0 mm
11:39 -3.3 °C -7.9 °C 34513.5 hPa North 23.8 km/h 11.6 km/h 60 % 0 mm
11:44 -3.2 °C -7.8 °C 34513.5 hPa North 15 km/h 8 km/h 60 % 0 mm
11:49 -3.2 °C -7.9 °C 34513.5 hPa North 23.8 km/h 11.6 km/h 60 % 0 mm
11:54 -3.2 °C -7.9 °C 34513.5 hPa North 15 km/h 5.6 km/h 59 % 0 mm
11:59 -3.1 °C -7.7 °C 34510.1 hPa North 21.6 km/h 11.6 km/h 60 % 0 mm
12:04 -2.9 °C -7.6 °C 34513.5 hPa North 15 km/h 5.6 km/h 60 % 0 mm
12:09 -2.7 °C -7.6 °C 34510.1 hPa North 8 km/h 4.2 km/h 59 % 0 mm
12:14 -2.8 °C -7.8 °C 34506.7 hPa North 21.6 km/h 11.6 km/h 58 % 0 mm
12:19 -2.9 °C -7.7 °C 34506.7 hPa North 20.9 km/h 9.8 km/h 59 % 0 mm
12:24 -2.6 °C -7.6 °C 34506.7 hPa North 17.9 km/h 9.8 km/h 58 % 0 mm
12:29 -2.7 °C -7.8 °C 34506.7 hPa North 9.8 km/h 1.8 km/h 57 % 0 mm
12:34 -2.4 °C -7.6 °C 34500 hPa North 11.9 km/h 1.8 km/h 57 % 0 mm
12:39 -2.3 °C -7.4 °C 34496.6 hPa North 20.9 km/h 5.6 km/h 57 % 0 mm
12:44 -2.3 °C -7.8 °C 34496.6 hPa North 17.9 km/h 11.6 km/h 55 % 0 mm
12:49 -2.3 °C -7.7 °C 34496.6 hPa North 20.9 km/h 8 km/h 56 % 0 mm
12:54 -2.4 °C -8.1 °C 34496.6 hPa North 20.9 km/h 9.8 km/h 54 % 0 mm
12:59 -2.4 °C -7.9 °C 34493.2 hPa North 15 km/h 4.2 km/h 55 % 0 mm
13:04 -2.1 °C -7.7 °C 34489.8 hPa North 21.6 km/h 11.6 km/h 54 % 0 mm
13:09 -2 °C -8 °C 34489.8 hPa North 20.9 km/h 8 km/h 52 % 0 mm
13:14 -1.9 °C -7.9 °C 34486.4 hPa North 11.6 km/h 8 km/h 52 % 0 mm
13:19 -1.9 °C -8.1 °C 34489.8 hPa North 9.8 km/h 5.6 km/h 51 % 0 mm
13:24 -1.8 °C -7.8 °C 34486.4 hPa North 15 km/h 8 km/h 52 % 0 mm
13:29 -1.8 °C -7.7 °C 34483 hPa North 23.8 km/h 15.6 km/h 53 % 0 mm
13:34 -1.7 °C -8.1 °C 34483 hPa North 17.9 km/h 5.6 km/h 50 % 0 mm
13:39 -1.7 °C -8.2 °C 34479.6 hPa North 15 km/h 5.6 km/h 49 % 0 mm
13:44 -1.6 °C -8.2 °C 34483 hPa North 15.6 km/h 4.2 km/h 49 % 0 mm
13:49 -1.6 °C -8.2 °C 34476.3 hPa North 26.9 km/h 9.8 km/h 49 % 0 mm
13:54 -1.6 °C -8.3 °C 34476.3 hPa North 20.9 km/h 4.2 km/h 48 % 0 mm
13:59 -1.4 °C -7.9 °C 34472.9 hPa North 11.9 km/h 8 km/h 49 % 0 mm
14:04 -1.4 °C -8.2 °C 34476.3 hPa North 15.6 km/h 8 km/h 48 % 0 mm
14:09 -1.2 °C -8 °C 34472.9 hPa North 15 km/h 8 km/h 48 % 0 mm
14:14 -1.2 °C -7.8 °C 34469.5 hPa North 15 km/h 5.6 km/h 49 % 0 mm
14:19 -1.3 °C -7.7 °C 34466.1 hPa North 23.8 km/h 15.6 km/h 50 % 0 mm
14:24 -1.2 °C -7.8 °C 34466.1 hPa North 20.9 km/h 9.8 km/h 49 % 0 mm
14:29 -1.3 °C -7.9 °C 34459.3 hPa North 11.6 km/h 8 km/h 49 % 0 mm
14:34 -1.2 °C -8 °C 34455.9 hPa North 15.6 km/h 9.8 km/h 48 % 0 mm
14:39 -1.2 °C -7.9 °C 34455.9 hPa North 21.6 km/h 15.6 km/h 48 % 0 mm
14:44 -1.2 °C -7.7 °C 34455.9 hPa North 26.9 km/h 15.6 km/h 49 % 0 mm
14:49 -1.1 °C -7.3 °C 34452.6 hPa North 9.8 km/h 1.8 km/h 51 % 0 mm
14:54 -1 °C -7.6 °C 34455.9 hPa North 15 km/h 8 km/h 49 % 0 mm
14:59 -0.8 °C -7.4 °C 34449.2 hPa North 15.6 km/h 8 km/h 49 % 0 mm
15:04 -0.9 °C -7.7 °C 34449.2 hPa North 27.7 km/h 21.6 km/h 48 % 0 mm
15:09 -1 °C -7.6 °C 34445.8 hPa North 20.9 km/h 1.8 km/h 49 % 0 mm
15:14 -0.9 °C -7.7 °C 34445.8 hPa North 20.9 km/h 1.8 km/h 48 % 0 mm
15:19 -0.8 °C -7.2 °C 34442.4 hPa North 6 km/h 4.2 km/h 50 % 0 mm
15:24 -0.6 °C -7.4 °C 34442.4 hPa North 19.6 km/h 5.6 km/h 48 % 0 mm
15:29 -0.7 °C -7.6 °C 34445.8 hPa North 23.8 km/h 4.2 km/h 48 % 0 mm
15:34 -0.6 °C -7.3 °C 34442.4 hPa North 9.8 km/h 4.2 km/h 49 % 0 mm
15:39 -0.6 °C -7.4 °C 34439 hPa North 15 km/h 8 km/h 48 % 0 mm
15:44 -0.5 °C -7.2 °C 34435.6 hPa North 11.6 km/h 5.6 km/h 49 % 0 mm
15:49 -0.4 °C -7.4 °C 34432.2 hPa North 15.6 km/h 9.8 km/h 47 % 0 mm
15:54 -0.1 °C -7 °C 34432.2 hPa North 15 km/h 1.8 km/h 48 % 0 mm
15:59 -0.2 °C -7.3 °C 34432.2 hPa North 9.8 km/h 4.2 km/h 47 % 0 mm
16:04 -0.4 °C -7.4 °C 34428.8 hPa North 17.9 km/h 11.6 km/h 47 % 0 mm
16:09 -0.6 °C -7.4 °C 34428.8 hPa North 15 km/h 5.6 km/h 48 % 0 mm
16:14 -0.7 °C -7.5 °C 34428.8 hPa North 15.6 km/h 5.6 km/h 48 % 0 mm
16:19 -0.7 °C -7.7 °C 34428.8 hPa North 9 km/h 4.2 km/h 47 % 0 mm
16:24 -0.5 °C -7.2 °C 34428.8 hPa North 15 km/h 8 km/h 49 % 0 mm
16:29 -0.4 °C -7.3 °C 34425.5 hPa North 19.6 km/h 14 km/h 48 % 0 mm
16:34 -0.3 °C -7.2 °C 34425.5 hPa North 20.9 km/h 9.8 km/h 48 % 0 mm
16:39 -0.4 °C -7.6 °C 34418.7 hPa North 21.6 km/h 11.6 km/h 46 % 0 mm
16:44 -0.3 °C -7.6 °C 34422.1 hPa North 15 km/h 5.6 km/h 46 % 0 mm
16:49 -0.3 °C -7.5 °C 34418.7 hPa North 21.6 km/h 5.6 km/h 46 % 0 mm
16:54 -0.1 °C -7.3 °C 34415.3 hPa North 9 km/h 1.8 km/h 46 % 0 mm
16:59 -0.2 °C -7.6 °C 34415.3 hPa North 19.6 km/h 15.6 km/h 45 % 0 mm
17:04 -0.1 °C -7.6 °C 34411.9 hPa North 21.6 km/h 15.6 km/h 45 % 0 mm
17:09 -0.2 °C -7.4 °C 34411.9 hPa North 23.8 km/h 14 km/h 46 % 0 mm
17:14 0.1 °C -7.3 °C 34408.5 hPa North 15.6 km/h 9.8 km/h 45 % 0 mm
17:19 -0.1 °C -7.6 °C 34411.9 hPa North 17.9 km/h 9.8 km/h 45 % 0 mm
17:24 -0.1 °C -7.6 °C 34408.5 hPa North 11.9 km/h 5.6 km/h 45 % 0 mm
17:29 0 °C -7.4 °C 34408.5 hPa North 15 km/h 5.6 km/h 45 % 0 mm
17:34 0.3 °C -7.2 °C 34411.9 hPa North 15 km/h 1.8 km/h 45 % 0 mm
17:39 0.3 °C -7.3 °C 34408.5 hPa North 15 km/h 5.6 km/h 44 % 0 mm
17:44 0.1 °C -7.6 °C 34405.1 hPa North 20.9 km/h 11.6 km/h 44 % 0 mm
17:49 0.1 °C -7.3 °C 34408.5 hPa North 23.8 km/h 5.6 km/h 45 % 0 mm
17:54 0.1 °C -7.3 °C 34405.1 hPa North 17.9 km/h 11.6 km/h 45 % 0 mm
17:59 -0.2 °C -7.4 °C 34405.1 hPa North 21.6 km/h 14 km/h 46 % 0 mm
18:04 -0.3 °C -7.7 °C 34405.1 hPa North 15 km/h 1.8 km/h 45 % 0 mm
18:09 -0.3 °C -7.6 °C 34398.4 hPa North 11.9 km/h 5.6 km/h 46 % 0 mm
18:14 -0.3 °C -7.5 °C 34405.1 hPa North 9 km/h 1.8 km/h 46 % 0 mm
18:19 -0.2 °C -7.8 °C 34391.6 hPa North 14 km/h 5.6 km/h 44 % 0 mm
18:24 -0.2 °C -7.8 °C 34398.4 hPa North 17.9 km/h 5.6 km/h 44 % 0 mm
18:29 -0.2 °C -7.6 °C 34395 hPa North 3.1 km/h   45 % 0 mm
18:34 -0.3 °C -7.7 °C 34391.6 hPa North 15.6 km/h 9.8 km/h 45 % 0 mm
18:39 -0.3 °C -7.7 °C 34391.6 hPa North 17.9 km/h 8 km/h 45 % 0 mm
18:44 -0.1 °C -7.6 °C 34384.8 hPa North 9 km/h 4.2 km/h 45 % 0 mm
18:49 0.1 °C -7.6 °C 34388.2 hPa North 9 km/h 4.2 km/h 44 % 0 mm
18:54 0.4 °C -7.4 °C 34388.2 hPa North 11.9 km/h 1.8 km/h 43 % 0 mm
18:59 0.6 °C -7.3 °C 34391.6 hPa North 9 km/h 1.8 km/h 43 % 0 mm
19:04 0.6 °C -7.2 °C 34388.2 hPa North 11.9 km/h 4.2 km/h 44 % 0 mm
19:09 0.6 °C -7.1 °C 34391.6 hPa North 14 km/h 5.6 km/h 44 % 0 mm
19:14 0.2 °C -7.5 °C 34388.2 hPa North 20.9 km/h 5.6 km/h 44 % 0 mm
19:19 -0.1 °C -7.5 °C 34388.2 hPa North 21.6 km/h 11.6 km/h 45 % 0 mm
19:24 -0.2 °C -7.4 °C 34384.8 hPa North 20.9 km/h 9.8 km/h 46 % 0 mm
19:29 -0.2 °C -7.4 °C 34384.8 hPa North 17.9 km/h 9.8 km/h 46 % 0 mm
19:34 -0.2 °C -7.6 °C 34388.2 hPa North 15.6 km/h 9.8 km/h 45 % 0 mm
19:39 0 °C -7.3 °C 34384.8 hPa North 15 km/h 8 km/h 46 % 0 mm
19:44 0 °C -7.4 °C 34388.2 hPa North 17.9 km/h 11.6 km/h 45 % 0 mm
19:49 -0.1 °C -7.7 °C 34388.2 hPa North 14 km/h 9.8 km/h 44 % 0 mm
19:54 -0.1 °C -7.5 °C 34388.2 hPa North 14 km/h 9.8 km/h 45 % 0 mm
19:59 0.1 °C -7.2 °C 34388.2 hPa North 9 km/h 4.2 km/h 46 % 0 mm
20:04 0.1 °C -7.3 °C 34391.6 hPa North 9 km/h 1.8 km/h 45 % 0 mm
20:09 0.1 °C -7.3 °C 34388.2 hPa North 5.6 km/h   45 % 0 mm
20:14 0.1 °C -7.3 °C 34395 hPa North 6 km/h 1.8 km/h 45 % 0 mm
20:19 0.1 °C -7.4 °C 34395 hPa North 5.6 km/h 4.2 km/h 45 % 0 mm
20:24 -0.1 °C -7.6 °C 34398.4 hPa North 15 km/h 5.6 km/h 45 % 0 mm
20:29 -0.2 °C -7.4 °C 34388.2 hPa North 15 km/h 8 km/h 46 % 0 mm
20:34 -0.2 °C -7.6 °C 34391.6 hPa North 11.9 km/h 4.2 km/h 45 % 0 mm
20:39 -0.2 °C -7.4 °C 34391.6 hPa North 15.6 km/h 9.8 km/h 46 % 0 mm
20:44 -0.2 °C -7.4 °C 34388.2 hPa North 11.9 km/h 4.2 km/h 46 % 0 mm
20:49 -0.2 °C -7.4 °C 34395 hPa North 9 km/h 1.8 km/h 46 % 0 mm
20:54 -0.2 °C -7.4 °C 34395 hPa North 8 km/h 4.2 km/h 46 % 0 mm
meteodaganzo
Elogios de Weather Underground - 2.75 mb

Guión original por  Jim McMurry - jmcmurry@mwt.net Adaptado para la plantilla por  Wim van der Kuil - Leuven-Template.eu

Usted encontrará nuestra información del tiempo también en:

WeatherCloud

Weather Underground

Iberian Peninsula Weather Network

AWEKAS

Citizen Weather Observer Program (CWOP)